Terminal Aerodrome Forecast
Issued by NWS

Home | Current Version | Previous Version | Text Only | Print | Product List | Glossary Off
Versions: 1 2 3 4 5 6 7 8 9 10 11 12 13 14 15 16 17 18 19 20 21 22 23 24 25 26 27 28 29

441
FTUS45 KGGW 172320
TAFOLF
TAF
KOLF 172320Z 1800/1824 24010KT P6SM SCT150 WS020/25045KT
     FM180700 28020G29KT P6SM FEW150
     FM181200 28014KT P6SM FEW150=

USA.gov is the U.S. government's official web portal to all federal, state and local government web resources and services.